sensor_id;sensor_type;location;lat;lon;timestamp;temperature;humidity
51811;DHT22;52468;40.116;18.296;2022-09-09T00:01:34;27.10;79.70
51811;DHT22;52468;40.116;18.296;2022-09-09T00:04:15;27.10;79.80
51811;DHT22;52468;40.116;18.296;2022-09-09T00:15:00;27.10;79.80
51811;DHT22;52468;40.116;18.296;2022-09-09T00:17:35;27.10;79.80
51811;DHT22;52468;40.116;18.296;2022-09-09T00:20:14;27.20;80.10
51811;DHT22;52468;40.116;18.296;2022-09-09T00:22:51;27.30;79.80
51811;DHT22;52468;40.116;18.296;2022-09-09T00:27:56;27.50;79.60
51811;DHT22;52468;40.116;18.296;2022-09-09T00:30:26;27.70;79.00
51811;DHT22;52468;40.116;18.296;2022-09-09T00:33:00;27.60;79.00
51811;DHT22;52468;40.116;18.296;2022-09-09T00:35:32;27.60;79.10
51811;DHT22;52468;40.116;18.296;2022-09-09T00:38:10;27.70;78.90
51811;DHT22;52468;40.116;18.296;2022-09-09T00:40:53;27.80;78.30
51811;DHT22;52468;40.116;18.296;2022-09-09T00:43:29;27.80;78.40
51811;DHT22;52468;40.116;18.296;2022-09-09T00:46:21;27.80;78.20
51811;DHT22;52468;40.116;18.296;2022-09-09T00:49:15;27.80;78.00
51811;DHT22;52468;40.116;18.296;2022-09-09T00:52:01;27.70;78.10
51811;DHT22;52468;40.116;18.296;2022-09-09T00:57:28;27.50;78.30
51811;DHT22;52468;40.116;18.296;2022-09-09T01:00:19;27.50;78.50
51811;DHT22;52468;40.116;18.296;2022-09-09T01:05:43;27.40;78.90
51811;DHT22;52468;40.116;18.296;2022-09-09T01:08:33;27.30;79.20
51811;DHT22;52468;40.116;18.296;2022-09-09T01:11:04;27.30;79.30
51811;DHT22;52468;40.116;18.296;2022-09-09T01:13:34;27.30;79.10
51811;DHT22;52468;40.116;18.296;2022-09-09T01:16:10;27.30;79.40
51811;DHT22;52468;40.116;18.296;2022-09-09T01:18:46;27.30;79.60
51811;DHT22;52468;40.116;18.296;2022-09-09T01:24:22;27.20;79.60
51811;DHT22;52468;40.116;18.296;2022-09-09T01:27:13;27.10;79.80
51811;DHT22;52468;40.116;18.296;2022-09-09T01:29:42;27.10;79.80
51811;DHT22;52468;40.116;18.296;2022-09-09T01:32:47;27.10;79.80
51811;DHT22;52468;40.116;18.296;2022-09-09T01:38:08;27.00;80.40
51811;DHT22;52468;40.116;18.296;2022-09-09T01:40:38;26.90;80.60
51811;DHT22;52468;40.116;18.296;2022-09-09T01:43:06;27.00;80.50
51811;DHT22;52468;40.116;18.296;2022-09-09T01:45:35;27.00;80.50
51811;DHT22;52468;40.116;18.296;2022-09-09T01:48:04;27.00;80.60
51811;DHT22;52468;40.116;18.296;2022-09-09T01:50:42;27.00;80.60
51811;DHT22;52468;40.116;18.296;2022-09-09T01:53:11;27.10;80.70
51811;DHT22;52468;40.116;18.296;2022-09-09T01:55:43;27.10;80.70
51811;DHT22;52468;40.116;18.296;2022-09-09T02:03:37;27.10;80.30
51811;DHT22;52468;40.116;18.296;2022-09-09T02:06:52;27.20;80.10
51811;DHT22;52468;40.116;18.296;2022-09-09T02:09:25;27.10;80.10
51811;DHT22;52468;40.116;18.296;2022-09-09T02:12:21;27.20;79.90
51811;DHT22;52468;40.116;18.296;2022-09-09T02:15:05;27.10;80.40
51811;DHT22;52468;40.116;18.296;2022-09-09T02:17:46;27.10;80.30
51811;DHT22;52468;40.116;18.296;2022-09-09T02:20:18;27.00;80.50
51811;DHT22;52468;40.116;18.296;2022-09-09T02:22:56;27.00;80.40
51811;DHT22;52468;40.116;18.296;2022-09-09T02:25:28;27.00;80.50
51811;DHT22;52468;40.116;18.296;2022-09-09T02:28:07;27.10;80.50
51811;DHT22;52468;40.116;18.296;2022-09-09T02:30:38;27.10;80.50
51811;DHT22;52468;40.116;18.296;2022-09-09T02:33:10;27.00;80.60
51811;DHT22;52468;40.116;18.296;2022-09-09T02:35:46;27.00;80.90
51811;DHT22;52468;40.116;18.296;2022-09-09T02:38:20;27.00;80.80
51811;DHT22;52468;40.116;18.296;2022-09-09T02:40:59;27.00;80.90
51811;DHT22;52468;40.116;18.296;2022-09-09T02:43:35;27.00;80.80
51811;DHT22;52468;40.116;18.296;2022-09-09T02:49:21;26.90;81.30
51811;DHT22;52468;40.116;18.296;2022-09-09T02:52:06;27.00;81.30
51811;DHT22;52468;40.116;18.296;2022-09-09T02:54:39;27.00;81.30
51811;DHT22;52468;40.116;18.296;2022-09-09T02:57:26;27.10;81.20
51811;DHT22;52468;40.116;18.296;2022-09-09T02:59:58;27.20;80.80
51811;DHT22;52468;40.116;18.296;2022-09-09T03:02:26;27.30;80.60
51811;DHT22;52468;40.116;18.296;2022-09-09T03:05:01;27.40;80.20
51811;DHT22;52468;40.116;18.296;2022-09-09T03:07:29;27.30;80.40
51811;DHT22;52468;40.116;18.296;2022-09-09T03:09:57;27.30;80.50
51811;DHT22;52468;40.116;18.296;2022-09-09T03:12:27;27.30;80.50
51811;DHT22;52468;40.116;18.296;2022-09-09T03:14:55;27.40;80.30
51811;DHT22;52468;40.116;18.296;2022-09-09T03:17:24;27.40;80.10
51811;DHT22;52468;40.116;18.296;2022-09-09T03:19:54;27.40;80.20
51811;DHT22;52468;40.116;18.296;2022-09-09T03:22:22;27.40;80.10
51811;DHT22;52468;40.116;18.296;2022-09-09T03:24:51;27.40;80.00
51811;DHT22;52468;40.116;18.296;2022-09-09T03:27:19;27.50;79.60
51811;DHT22;52468;40.116;18.296;2022-09-09T03:29:47;27.50;79.70
51811;DHT22;52468;40.116;18.296;2022-09-09T03:32:22;27.50;79.60
51811;DHT22;52468;40.116;18.296;2022-09-09T03:34:52;27.50;79.40
51811;DHT22;52468;40.116;18.296;2022-09-09T03:37:20;27.50;79.40
51811;DHT22;52468;40.116;18.296;2022-09-09T03:39:50;27.50;78.90
51811;DHT22;52468;40.116;18.296;2022-09-09T03:42:19;27.50;79.00
51811;DHT22;52468;40.116;18.296;2022-09-09T03:44:50;27.50;78.80
51811;DHT22;52468;40.116;18.296;2022-09-09T03:47:22;27.50;79.00
51811;DHT22;52468;40.116;18.296;2022-09-09T03:49:54;27.50;78.90
51811;DHT22;52468;40.116;18.296;2022-09-09T03:52:22;27.60;78.60
51811;DHT22;52468;40.116;18.296;2022-09-09T03:54:54;27.50;78.90
51811;DHT22;52468;40.116;18.296;2022-09-09T03:57:21;27.50;79.10
51811;DHT22;52468;40.116;18.296;2022-09-09T03:59:50;27.60;79.00
51811;DHT22;52468;40.116;18.296;2022-09-09T04:02:18;27.60;78.90
51811;DHT22;52468;40.116;18.296;2022-09-09T04:04:46;27.60;78.80
51811;DHT22;52468;40.116;18.296;2022-09-09T04:07:14;27.60;79.10
51811;DHT22;52468;40.116;18.296;2022-09-09T04:09:43;27.50;79.20
51811;DHT22;52468;40.116;18.296;2022-09-09T04:12:11;27.60;78.90
51811;DHT22;52468;40.116;18.296;2022-09-09T04:14:41;27.50;79.00
51811;DHT22;52468;40.116;18.296;2022-09-09T04:17:10;27.50;79.20
51811;DHT22;52468;40.116;18.296;2022-09-09T04:19:38;27.50;79.10
51811;DHT22;52468;40.116;18.296;2022-09-09T04:22:06;27.50;78.90
51811;DHT22;52468;40.116;18.296;2022-09-09T04:24:34;27.50;78.90
51811;DHT22;52468;40.116;18.296;2022-09-09T04:27:02;27.50;79.20
51811;DHT22;52468;40.116;18.296;2022-09-09T04:29:33;27.50;79.00
51811;DHT22;52468;40.116;18.296;2022-09-09T04:32:01;27.50;79.10
51811;DHT22;52468;40.116;18.296;2022-09-09T04:34:29;27.50;79.10
51811;DHT22;52468;40.116;18.296;2022-09-09T04:36:59;27.40;79.00
51811;DHT22;52468;40.116;18.296;2022-09-09T04:39:28;27.40;79.20
51811;DHT22;52468;40.116;18.296;2022-09-09T04:41:58;27.50;79.10
51811;DHT22;52468;40.116;18.296;2022-09-09T04:44:26;27.40;79.20
51811;DHT22;52468;40.116;18.296;2022-09-09T04:46:54;27.30;79.50
51811;DHT22;52468;40.116;18.296;2022-09-09T04:49:22;27.40;79.60
51811;DHT22;52468;40.116;18.296;2022-09-09T04:51:51;27.40;79.50
51811;DHT22;52468;40.116;18.296;2022-09-09T04:54:19;27.40;79.50
51811;DHT22;52468;40.116;18.296;2022-09-09T04:56:47;27.50;79.50
51811;DHT22;52468;40.116;18.296;2022-09-09T04:59:16;27.50;79.40
51811;DHT22;52468;40.116;18.296;2022-09-09T05:01:48;27.50;79.30
51811;DHT22;52468;40.116;18.296;2022-09-09T05:04:18;27.50;79.20
51811;DHT22;52468;40.116;18.296;2022-09-09T05:06:47;27.60;79.00
51811;DHT22;52468;40.116;18.296;2022-09-09T05:09:15;27.70;78.70
51811;DHT22;52468;40.116;18.296;2022-09-09T05:11:44;27.90;78.50
51811;DHT22;52468;40.116;18.296;2022-09-09T05:14:23;28.00;77.80
51811;DHT22;52468;40.116;18.296;2022-09-09T05:16:51;28.20;77.30
51811;DHT22;52468;40.116;18.296;2022-09-09T05:19:21;28.30;76.80
51811;DHT22;52468;40.116;18.296;2022-09-09T05:21:51;28.30;76.60
51811;DHT22;52468;40.116;18.296;2022-09-09T05:24:29;28.30;76.60
51811;DHT22;52468;40.116;18.296;2022-09-09T05:27:01;28.40;76.60
51811;DHT22;52468;40.116;18.296;2022-09-09T05:29:30;28.50;76.00
51811;DHT22;52468;40.116;18.296;2022-09-09T05:32:03;28.50;75.70
51811;DHT22;52468;40.116;18.296;2022-09-09T05:34:31;28.50;76.00
51811;DHT22;52468;40.116;18.296;2022-09-09T05:37:00;28.60;75.60
51811;DHT22;52468;40.116;18.296;2022-09-09T05:39:28;28.60;75.50
51811;DHT22;52468;40.116;18.296;2022-09-09T05:41:56;28.70;75.50
51811;DHT22;52468;40.116;18.296;2022-09-09T05:44:24;28.80;75.20
51811;DHT22;52468;40.116;18.296;2022-09-09T05:46:55;29.00;74.70
51811;DHT22;52468;40.116;18.296;2022-09-09T05:49:23;29.10;74.20
51811;DHT22;52468;40.116;18.296;2022-09-09T05:51:51;29.20;73.40
51811;DHT22;52468;40.116;18.296;2022-09-09T05:54:21;29.30;73.10
51811;DHT22;52468;40.116;18.296;2022-09-09T05:56:51;29.40;72.50
51811;DHT22;52468;40.116;18.296;2022-09-09T05:59:21;29.40;72.50
51811;DHT22;52468;40.116;18.296;2022-09-09T06:01:53;29.50;72.10
51811;DHT22;52468;40.116;18.296;2022-09-09T06:04:28;29.50;71.90
51811;DHT22;52468;40.116;18.296;2022-09-09T06:06:56;29.70;71.40
51811;DHT22;52468;40.116;18.296;2022-09-09T06:09:24;29.70;71.10
51811;DHT22;52468;40.116;18.296;2022-09-09T06:11:52;29.70;71.20
51811;DHT22;52468;40.116;18.296;2022-09-09T06:14:23;29.80;71.30
51811;DHT22;52468;40.116;18.296;2022-09-09T06:16:53;30.00;70.90
51811;DHT22;52468;40.116;18.296;2022-09-09T06:19:23;30.10;69.80
51811;DHT22;52468;40.116;18.296;2022-09-09T06:21:56;30.20;69.40
51811;DHT22;52468;40.116;18.296;2022-09-09T06:24:24;30.30;68.90
51811;DHT22;52468;40.116;18.296;2022-09-09T06:26:52;30.40;68.90
51811;DHT22;52468;40.116;18.296;2022-09-09T06:29:26;30.50;68.20
51811;DHT22;52468;40.116;18.296;2022-09-09T06:31:54;30.70;67.00
51811;DHT22;52468;40.116;18.296;2022-09-09T06:34:24;30.70;67.00
51811;DHT22;52468;40.116;18.296;2022-09-09T06:36:58;30.80;66.90
51811;DHT22;52468;40.116;18.296;2022-09-09T06:39:31;30.90;67.10
51811;DHT22;52468;40.116;18.296;2022-09-09T06:41:59;30.90;66.50
51811;DHT22;52468;40.116;18.296;2022-09-09T06:44:59;31.00;66.30
51811;DHT22;52468;40.116;18.296;2022-09-09T06:47:41;31.00;66.20
51811;DHT22;52468;40.116;18.296;2022-09-09T06:50:09;30.80;66.60
51811;DHT22;52468;40.116;18.296;2022-09-09T06:52:39;30.70;67.00
51811;DHT22;52468;40.116;18.296;2022-09-09T06:55:09;30.60;67.30
51811;DHT22;52468;40.116;18.296;2022-09-09T06:57:37;30.60;67.30
51811;DHT22;52468;40.116;18.296;2022-09-09T07:00:12;30.50;67.70
51811;DHT22;52468;40.116;18.296;2022-09-09T07:02:41;30.50;67.70
51811;DHT22;52468;40.116;18.296;2022-09-09T07:05:10;30.50;67.90
51811;DHT22;52468;40.116;18.296;2022-09-09T07:07:40;30.80;67.00
51811;DHT22;52468;40.116;18.296;2022-09-09T07:10:09;31.00;66.40
51811;DHT22;52468;40.116;18.296;2022-09-09T07:12:37;31.20;64.90
51811;DHT22;52468;40.116;18.296;2022-09-09T07:15:09;31.20;65.10
51811;DHT22;52468;40.116;18.296;2022-09-09T07:17:41;31.50;64.60
51811;DHT22;52468;40.116;18.296;2022-09-09T07:20:09;31.70;63.90
51811;DHT22;52468;40.116;18.296;2022-09-09T07:22:36;32.00;63.40
51811;DHT22;52468;40.116;18.296;2022-09-09T07:25:05;32.00;63.20
51811;DHT22;52468;40.116;18.296;2022-09-09T07:27:33;32.00;62.10
51811;DHT22;52468;40.116;18.296;2022-09-09T07:30:02;32.30;61.60
51811;DHT22;52468;40.116;18.296;2022-09-09T07:32:33;32.70;60.40
51811;DHT22;52468;40.116;18.296;2022-09-09T07:35:01;33.30;59.10
51811;DHT22;52468;40.116;18.296;2022-09-09T07:37:29;33.60;57.70
51811;DHT22;52468;40.116;18.296;2022-09-09T07:39:57;33.90;56.90
51811;DHT22;52468;40.116;18.296;2022-09-09T07:42:26;34.00;56.80
51811;DHT22;52468;40.116;18.296;2022-09-09T07:44:54;34.30;56.20
51811;DHT22;52468;40.116;18.296;2022-09-09T07:47:23;34.20;55.30
51811;DHT22;52468;40.116;18.296;2022-09-09T07:49:52;34.00;56.20
51811;DHT22;52468;40.116;18.296;2022-09-09T07:52:25;34.10;56.00
51811;DHT22;52468;40.116;18.296;2022-09-09T07:54:59;34.20;55.60
51811;DHT22;52468;40.116;18.296;2022-09-09T07:57:30;34.40;55.30
51811;DHT22;52468;40.116;18.296;2022-09-09T07:59:59;34.40;54.90
51811;DHT22;52468;40.116;18.296;2022-09-09T08:02:28;34.50;55.10
51811;DHT22;52468;40.116;18.296;2022-09-09T08:04:58;34.60;54.50
51811;DHT22;52468;40.116;18.296;2022-09-09T08:07:26;34.50;54.50
51811;DHT22;52468;40.116;18.296;2022-09-09T08:09:55;34.40;54.80
51811;DHT22;52468;40.116;18.296;2022-09-09T08:12:28;34.40;55.10
51811;DHT22;52468;40.116;18.296;2022-09-09T08:14:57;34.70;54.60
51811;DHT22;52468;40.116;18.296;2022-09-09T08:17:29;35.10;54.00
51811;DHT22;52468;40.116;18.296;2022-09-09T08:20:02;35.50;52.50
51811;DHT22;52468;40.116;18.296;2022-09-09T08:22:34;35.40;52.50
51811;DHT22;52468;40.116;18.296;2022-09-09T08:25:02;35.30;52.20
51811;DHT22;52468;40.116;18.296;2022-09-09T08:27:35;35.30;52.30
51811;DHT22;52468;40.116;18.296;2022-09-09T08:30:05;35.10;52.80
51811;DHT22;52468;40.116;18.296;2022-09-09T08:32:33;34.80;53.50
51811;DHT22;52468;40.116;18.296;2022-09-09T08:35:03;35.00;53.80
51811;DHT22;52468;40.116;18.296;2022-09-09T08:37:34;35.00;53.30
51811;DHT22;52468;40.116;18.296;2022-09-09T08:40:02;35.10;53.30
51811;DHT22;52468;40.116;18.296;2022-09-09T08:42:35;35.40;52.50
51811;DHT22;52468;40.116;18.296;2022-09-09T08:45:14;35.30;52.30
51811;DHT22;52468;40.116;18.296;2022-09-09T08:47:51;35.10;52.70
51811;DHT22;52468;40.116;18.296;2022-09-09T08:53:09;34.70;53.80
51811;DHT22;52468;40.116;18.296;2022-09-09T08:55:57;34.40;54.00
51811;DHT22;52468;40.116;18.296;2022-09-09T08:58:47;34.00;55.00
51811;DHT22;52468;40.116;18.296;2022-09-09T09:02:00;33.70;56.60
51811;DHT22;52468;40.116;18.296;2022-09-09T09:13:48;34.70;53.20
51811;DHT22;52468;40.116;18.296;2022-09-09T09:16:26;35.00;52.50
51811;DHT22;52468;40.116;18.296;2022-09-09T09:19:01;35.00;52.40
51811;DHT22;52468;40.116;18.296;2022-09-09T09:24:01;35.40;51.90
51811;DHT22;52468;40.116;18.296;2022-09-09T09:26:34;35.50;51.20
51811;DHT22;52468;40.116;18.296;2022-09-09T09:29:11;35.70;50.40
51811;DHT22;52468;40.116;18.296;2022-09-09T09:31:47;35.80;50.10
51811;DHT22;52468;40.116;18.296;2022-09-09T09:34:16;35.70;50.60
51811;DHT22;52468;40.116;18.296;2022-09-09T09:36:58;35.90;50.70
51811;DHT22;52468;40.116;18.296;2022-09-09T09:39:33;35.90;50.60
51811;DHT22;52468;40.116;18.296;2022-09-09T09:42:25;35.80;50.60
51811;DHT22;52468;40.116;18.296;2022-09-09T09:44:56;35.90;49.70
51811;DHT22;52468;40.116;18.296;2022-09-09T09:47:34;36.00;49.00
51811;DHT22;52468;40.116;18.296;2022-09-09T09:50:19;36.10;48.80
51811;DHT22;52468;40.116;18.296;2022-09-09T09:53:02;36.20;49.10
51811;DHT22;52468;40.116;18.296;2022-09-09T09:55:35;36.30;48.20
51811;DHT22;52468;40.116;18.296;2022-09-09T09:58:06;36.50;48.10
51811;DHT22;52468;40.116;18.296;2022-09-09T10:00:35;36.50;48.30
51811;DHT22;52468;40.116;18.296;2022-09-09T10:03:29;36.50;48.80
51811;DHT22;52468;40.116;18.296;2022-09-09T10:06:00;36.60;48.20
51811;DHT22;52468;40.116;18.296;2022-09-09T10:08:28;36.70;48.40
51811;DHT22;52468;40.116;18.296;2022-09-09T10:38:30;36.00;49.00
51811;DHT22;52468;40.116;18.296;2022-09-09T10:55:20;37.00;46.30
51811;DHT22;52468;40.116;18.296;2022-09-09T10:57:58;37.00;46.30
51811;DHT22;52468;40.116;18.296;2022-09-09T11:00:51;37.10;45.70
51811;DHT22;52468;40.116;18.296;2022-09-09T11:03:28;37.20;45.60
51811;DHT22;52468;40.116;18.296;2022-09-09T11:08:34;37.50;45.60
51811;DHT22;52468;40.116;18.296;2022-09-09T11:11:25;37.90;45.20
51811;DHT22;52468;40.116;18.296;2022-09-09T11:17:17;38.30;43.80
51811;DHT22;52468;40.116;18.296;2022-09-09T11:19:46;38.50;42.60
51811;DHT22;52468;40.116;18.296;2022-09-09T11:22:27;38.00;43.70
51811;DHT22;52468;40.116;18.296;2022-09-09T11:25:08;37.70;45.10
51811;DHT22;52468;40.116;18.296;2022-09-09T11:33:34;38.10;43.50
51811;DHT22;52468;40.116;18.296;2022-09-09T11:42:18;38.20;44.20
51811;DHT22;52468;40.116;18.296;2022-09-09T11:44:46;38.10;44.10
51811;DHT22;52468;40.116;18.296;2022-09-09T11:47:27;38.20;44.00
51811;DHT22;52468;40.116;18.296;2022-09-09T11:50:39;38.00;44.60
51811;DHT22;52468;40.116;18.296;2022-09-09T11:55:41;38.00;44.40
51811;DHT22;52468;40.116;18.296;2022-09-09T12:00:44;38.40;43.30
51811;DHT22;52468;40.116;18.296;2022-09-09T12:03:33;38.40;42.80
51811;DHT22;52468;40.116;18.296;2022-09-09T12:06:27;38.10;43.30
51811;DHT22;52468;40.116;18.296;2022-09-09T12:09:23;37.70;44.40
51811;DHT22;52468;40.116;18.296;2022-09-09T12:11:52;37.60;44.70
51811;DHT22;52468;40.116;18.296;2022-09-09T12:17:27;37.30;45.70
51811;DHT22;52468;40.116;18.296;2022-09-09T12:20:18;37.00;46.40
51811;DHT22;52468;40.116;18.296;2022-09-09T12:28:19;37.70;44.10
51811;DHT22;52468;40.116;18.296;2022-09-09T12:33:37;38.00;43.70
51811;DHT22;52468;40.116;18.296;2022-09-09T12:36:15;38.00;44.00
51811;DHT22;52468;40.116;18.296;2022-09-09T12:38:44;38.00;44.20
51811;DHT22;52468;40.116;18.296;2022-09-09T12:41:24;38.00;44.40
51811;DHT22;52468;40.116;18.296;2022-09-09T12:44:08;37.80;44.70
51811;DHT22;52468;40.116;18.296;2022-09-09T12:46:42;37.60;45.00
51811;DHT22;52468;40.116;18.296;2022-09-09T12:51:54;37.80;44.40
51811;DHT22;52468;40.116;18.296;2022-09-09T12:54:22;38.00;44.00
51811;DHT22;52468;40.116;18.296;2022-09-09T12:56:50;38.00;43.50
51811;DHT22;52468;40.116;18.296;2022-09-09T12:59:37;38.00;43.80
51811;DHT22;52468;40.116;18.296;2022-09-09T13:02:21;37.60;44.70
51811;DHT22;52468;40.116;18.296;2022-09-09T13:04:50;37.60;44.50
51811;DHT22;52468;40.116;18.296;2022-09-09T13:07:19;37.60;44.00
51811;DHT22;52468;40.116;18.296;2022-09-09T13:09:48;37.90;44.30
51811;DHT22;52468;40.116;18.296;2022-09-09T13:12:19;37.90;44.00
51811;DHT22;52468;40.116;18.296;2022-09-09T13:14:50;37.70;44.50
51811;DHT22;52468;40.116;18.296;2022-09-09T13:17:27;37.60;44.20
51811;DHT22;52468;40.116;18.296;2022-09-09T13:19:57;37.50;44.20
51811;DHT22;52468;40.116;18.296;2022-09-09T13:22:38;37.40;45.00
51811;DHT22;52468;40.116;18.296;2022-09-09T13:27:41;37.50;44.60
51811;DHT22;52468;40.116;18.296;2022-09-09T13:35:55;37.70;44.70
51811;DHT22;52468;40.116;18.296;2022-09-09T13:38:24;37.90;44.40
51811;DHT22;52468;40.116;18.296;2022-09-09T13:40:59;38.00;44.40
51811;DHT22;52468;40.116;18.296;2022-09-09T13:43:36;38.10;44.10
51811;DHT22;52468;40.116;18.296;2022-09-09T13:46:26;38.20;43.40
51811;DHT22;52468;40.116;18.296;2022-09-09T13:51:49;38.50;42.60
51811;DHT22;52468;40.116;18.296;2022-09-09T13:54:19;38.80;41.80
51811;DHT22;52468;40.116;18.296;2022-09-09T13:56:48;39.40;41.10
51811;DHT22;52468;40.116;18.296;2022-09-09T13:59:19;40.10;39.70
51811;DHT22;52468;40.116;18.296;2022-09-09T14:01:47;40.40;38.90
51811;DHT22;52468;40.116;18.296;2022-09-09T14:04:17;41.30;37.60
51811;DHT22;52468;40.116;18.296;2022-09-09T14:06:44;42.60;35.80
51811;DHT22;52468;40.116;18.296;2022-09-09T14:09:15;43.40;34.60
51811;DHT22;52468;40.116;18.296;2022-09-09T14:11:44;44.40;33.10
51811;DHT22;52468;40.116;18.296;2022-09-09T14:14:13;45.00;32.10
51811;DHT22;52468;40.116;18.296;2022-09-09T14:16:41;45.00;31.80
51811;DHT22;52468;40.116;18.296;2022-09-09T14:19:09;45.10;31.70
51811;DHT22;52468;40.116;18.296;2022-09-09T14:21:37;45.30;31.30
51811;DHT22;52468;40.116;18.296;2022-09-09T14:24:05;45.40;31.20
51811;DHT22;52468;40.116;18.296;2022-09-09T14:26:33;45.60;30.70
51811;DHT22;52468;40.116;18.296;2022-09-09T14:29:01;45.50;31.00
51811;DHT22;52468;40.116;18.296;2022-09-09T14:31:29;45.50;30.90
51811;DHT22;52468;40.116;18.296;2022-09-09T14:33:58;45.50;30.90
51811;DHT22;52468;40.116;18.296;2022-09-09T14:36:26;45.50;30.90
51811;DHT22;52468;40.116;18.296;2022-09-09T14:38:54;45.60;30.90
51811;DHT22;52468;40.116;18.296;2022-09-09T14:41:22;45.80;31.00
51811;DHT22;52468;40.116;18.296;2022-09-09T14:43:50;45.60;31.10
51811;DHT22;52468;40.116;18.296;2022-09-09T14:46:21;45.30;31.30
51811;DHT22;52468;40.116;18.296;2022-09-09T14:48:49;45.20;31.40
51811;DHT22;52468;40.116;18.296;2022-09-09T14:51:22;45.10;31.40
51811;DHT22;52468;40.116;18.296;2022-09-09T14:53:52;45.20;31.60
51811;DHT22;52468;40.116;18.296;2022-09-09T14:56:25;45.40;31.50
51811;DHT22;52468;40.116;18.296;2022-09-09T14:58:55;45.30;31.10
51811;DHT22;52468;40.116;18.296;2022-09-09T15:01:24;45.20;31.00
51811;DHT22;52468;40.116;18.296;2022-09-09T15:03:57;45.20;31.20
51811;DHT22;52468;40.116;18.296;2022-09-09T15:06:27;45.40;31.10
51811;DHT22;52468;40.116;18.296;2022-09-09T15:08:57;45.50;31.20
51811;DHT22;52468;40.116;18.296;2022-09-09T15:11:29;45.40;31.00
51811;DHT22;52468;40.116;18.296;2022-09-09T15:14:00;45.50;31.00
51811;DHT22;52468;40.116;18.296;2022-09-09T15:16:28;45.40;31.10
51811;DHT22;52468;40.116;18.296;2022-09-09T15:18:58;45.10;31.60
51811;DHT22;52468;40.116;18.296;2022-09-09T15:21:28;45.00;31.80
51811;DHT22;52468;40.116;18.296;2022-09-09T15:23:57;45.30;31.70
51811;DHT22;52468;40.116;18.296;2022-09-09T15:26:26;45.30;31.50
51811;DHT22;52468;40.116;18.296;2022-09-09T15:28:54;45.30;31.80
51811;DHT22;52468;40.116;18.296;2022-09-09T15:31:25;45.20;31.90
51811;DHT22;52468;40.116;18.296;2022-09-09T15:33:59;45.10;31.90
51811;DHT22;52468;40.116;18.296;2022-09-09T15:36:41;45.10;31.60
51811;DHT22;52468;40.116;18.296;2022-09-09T15:39:12;44.80;31.70
51811;DHT22;52468;40.116;18.296;2022-09-09T15:41:41;44.30;32.50
51811;DHT22;52468;40.116;18.296;2022-09-09T15:44:10;43.80;33.30
51811;DHT22;52468;40.116;18.296;2022-09-09T15:51:46;42.90;34.50
51811;DHT22;52468;40.116;18.296;2022-09-09T15:54:16;42.20;35.10
51811;DHT22;52468;40.116;18.296;2022-09-09T15:56:47;41.20;36.60
51811;DHT22;52468;40.116;18.296;2022-09-09T15:59:17;39.90;38.70
51811;DHT22;52468;40.116;18.296;2022-09-09T16:01:45;38.50;41.00
51811;DHT22;52468;40.116;18.296;2022-09-09T16:04:13;37.40;43.30
51811;DHT22;52468;40.116;18.296;2022-09-09T16:06:42;36.30;49.10
51811;DHT22;52468;40.116;18.296;2022-09-09T16:09:10;35.40;52.30
51811;DHT22;52468;40.116;18.296;2022-09-09T16:11:38;34.60;54.70
51811;DHT22;52468;40.116;18.296;2022-09-09T16:14:06;34.00;56.50
51811;DHT22;52468;40.116;18.296;2022-09-09T16:16:35;33.60;57.90
51811;DHT22;52468;40.116;18.296;2022-09-09T16:19:08;33.30;59.20
51811;DHT22;52468;40.116;18.296;2022-09-09T16:21:41;33.10;60.00
51811;DHT22;52468;40.116;18.296;2022-09-09T16:24:11;32.80;60.90
51811;DHT22;52468;40.116;18.296;2022-09-09T16:26:43;32.50;61.80
51811;DHT22;52468;40.116;18.296;2022-09-09T16:29:13;32.40;62.40
51811;DHT22;52468;40.116;18.296;2022-09-09T16:31:41;32.20;62.90
51811;DHT22;52468;40.116;18.296;2022-09-09T16:34:10;32.10;63.40
51811;DHT22;52468;40.116;18.296;2022-09-09T16:36:39;32.00;63.90
51811;DHT22;52468;40.116;18.296;2022-09-09T16:39:15;31.80;64.80
51811;DHT22;52468;40.116;18.296;2022-09-09T16:41:45;31.80;64.70
51811;DHT22;52468;40.116;18.296;2022-09-09T16:44:16;31.60;65.30
51811;DHT22;52468;40.116;18.296;2022-09-09T16:46:47;31.50;65.70
51811;DHT22;52468;40.116;18.296;2022-09-09T16:49:16;31.40;65.90
51811;DHT22;52468;40.116;18.296;2022-09-09T16:51:48;31.00;66.70
51811;DHT22;52468;40.116;18.296;2022-09-09T16:54:17;31.00;67.30
51811;DHT22;52468;40.116;18.296;2022-09-09T16:56:47;30.80;67.80
51811;DHT22;52468;40.116;18.296;2022-09-09T16:59:18;30.60;68.30
51811;DHT22;52468;40.116;18.296;2022-09-09T17:01:48;30.40;68.70
51811;DHT22;52468;40.116;18.296;2022-09-09T17:04:19;30.20;69.40
51811;DHT22;52468;40.116;18.296;2022-09-09T17:06:49;30.00;70.00
51811;DHT22;52468;40.116;18.296;2022-09-09T17:09:18;29.90;70.50
51811;DHT22;52468;40.116;18.296;2022-09-09T17:11:47;29.70;71.00
51811;DHT22;52468;40.116;18.296;2022-09-09T17:14:17;29.60;71.30
51811;DHT22;52468;40.116;18.296;2022-09-09T17:16:46;29.50;71.70
51811;DHT22;52468;40.116;18.296;2022-09-09T17:19:14;29.50;71.80
51811;DHT22;52468;40.116;18.296;2022-09-09T17:21:43;29.50;72.30
51811;DHT22;52468;40.116;18.296;2022-09-09T17:24:27;29.30;72.50
51811;DHT22;52468;40.116;18.296;2022-09-09T17:26:56;29.30;72.90
51811;DHT22;52468;40.116;18.296;2022-09-09T17:29:25;29.20;72.90
51811;DHT22;52468;40.116;18.296;2022-09-09T17:31:53;29.20;73.20
51811;DHT22;52468;40.116;18.296;2022-09-09T17:34:22;29.10;73.30
51811;DHT22;52468;40.116;18.296;2022-09-09T17:36:51;29.00;73.70
51811;DHT22;52468;40.116;18.296;2022-09-09T17:39:19;29.00;74.10
51811;DHT22;52468;40.116;18.296;2022-09-09T17:41:47;28.90;74.20
51811;DHT22;52468;40.116;18.296;2022-09-09T17:44:16;28.80;74.60
51811;DHT22;52468;40.116;18.296;2022-09-09T17:46:44;28.80;74.70
51811;DHT22;52468;40.116;18.296;2022-09-09T17:49:15;28.70;75.10
51811;DHT22;52468;40.116;18.296;2022-09-09T17:51:43;28.70;75.30
51811;DHT22;52468;40.116;18.296;2022-09-09T17:54:19;28.60;75.30
51811;DHT22;52468;40.116;18.296;2022-09-09T17:56:48;28.60;75.60
51811;DHT22;52468;40.116;18.296;2022-09-09T17:59:17;28.50;75.80
51811;DHT22;52468;40.116;18.296;2022-09-09T18:01:47;28.50;75.90
51811;DHT22;52468;40.116;18.296;2022-09-09T18:04:16;28.50;76.00
51811;DHT22;52468;40.116;18.296;2022-09-09T18:06:49;28.50;76.30
51811;DHT22;52468;40.116;18.296;2022-09-09T18:09:20;28.50;76.20